Time;durP1;ratioP1;P1;durP2;ratioP2;P2;SDS_P1;SDS_P2;PMS_P1;PMS_P2;Temp;Humidity;BMP_temperature;BMP_pressure;BME280_temperature;BME280_humidity;BME280_pressure;Samples;Min_cycle;Max_cycle;Signal;HPM_P1;HPM_P2
2022/03/21 00:01:13;;;;;;;11.12;8.20;;;;;;;15.42;38.93;101913.62;1856811;77;21009;-64
2022/03/21 00:03:40;;;;;;;10.35;8.15;;;;;;;15.41;38.94;101905.22;1856802;77;21278;-64
2022/03/21 00:06:06;;;;;;;11.10;7.80;;;;;;;15.40;38.96;101900.04;1855888;77;21008;-63
2022/03/21 00:08:37;;;;;;;13.13;8.48;;;;;;;15.40;38.96;101898.70;1841390;77;20997;-64
2022/03/21 00:11:05;;;;;;;12.35;8.55;;;;;;;15.39;38.98;101901.02;1846741;77;21022;-63
2022/03/21 00:13:35;;;;;;;11.33;7.97;;;;;;;15.38;38.98;101896.67;1845735;77;21065;-63
2022/03/21 00:16:04;;;;;;;11.95;9.15;;;;;;;15.37;38.99;101895.80;1845799;77;21928;-64
2022/03/21 00:18:33;;;;;;;11.33;8.08;;;;;;;15.34;38.96;101895.61;1845933;77;21010;-64
2022/03/21 00:21:01;;;;;;;11.63;8.23;;;;;;;15.34;39.00;101886.73;1845816;77;20986;-64
2022/03/21 00:23:31;;;;;;;10.53;8.03;;;;;;;15.34;39.00;101890.76;1845775;77;21029;-64
2022/03/21 00:25:59;;;;;;;9.73;8.00;;;;;;;15.33;39.02;101887.72;1845951;77;21013;-65
2022/03/21 00:28:25;;;;;;;9.78;7.87;;;;;;;15.32;39.02;101887.39;1856649;77;21920;-64
2022/03/21 00:30:53;;;;;;;10.55;8.30;;;;;;;15.31;39.02;101885.69;1856903;77;21005;-65
2022/03/21 00:33:20;;;;;;;12.60;9.33;;;;;;;15.28;39.03;101881.48;1856841;77;21023;-64
2022/03/21 00:35:50;;;;;;;11.05;8.78;;;;;;;15.28;39.03;101879.30;1856724;77;21445;-63
2022/03/21 00:38:17;;;;;;;11.48;8.80;;;;;;;15.27;39.05;101879.77;1856886;77;20962;-64
2022/03/21 00:40:45;;;;;;;15.20;8.73;;;;;;;15.26;39.07;101878.58;1856801;77;21235;-64
2022/03/21 00:43:22;;;;;;;12.20;8.80;;;;;;;15.25;39.07;101876.40;1846758;77;20955;-64
2022/03/21 00:45:54;;;;;;;13.20;9.18;;;;;;;15.23;39.07;101874.37;1837497;78;21565;-63
2022/03/21 00:48:22;;;;;;;12.50;9.45;;;;;;;15.22;39.10;101878.05;1837208;78;21046;-63
2022/03/21 00:50:48;;;;;;;15.10;9.08;;;;;;;15.21;39.08;101870.99;1837344;78;21061;-64
2022/03/21 00:53:21;;;;;;;13.98;9.73;;;;;;;15.20;39.11;101868.45;1837244;78;21811;-63
2022/03/21 00:55:48;;;;;;;15.13;10.30;;;;;;;15.19;39.11;101871.64;1837375;78;21041;-63
2022/03/21 00:58:17;;;;;;;13.43;10.20;;;;;;;15.18;39.11;101877.13;1837067;77;21495;-64
2022/03/21 01:00:43;;;;;;;16.87;11.53;;;;;;;15.17;39.10;101872.78;1836246;78;21463;-64
2022/03/21 01:03:10;;;;;;;16.62;10.50;;;;;;;15.15;39.12;101864.89;1835142;77;21091;-63
2022/03/21 01:05:37;;;;;;;14.03;9.53;;;;;;;15.14;39.13;101857.83;1833088;78;21232;-64
2022/03/21 01:08:04;;;;;;;14.73;11.30;;;;;;;15.12;39.14;101865.17;1837060;78;21018;-63
2022/03/21 01:10:34;;;;;;;14.90;11.55;;;;;;;15.11;39.12;101867.02;1807905;78;21495;-63
2022/03/21 01:13:01;;;;;;;16.90;11.20;;;;;;;15.11;39.15;101860.32;1837553;78;21521;-64
2022/03/21 01:15:29;;;;;;;18.27;11.60;;;;;;;15.09;39.17;101854.77;1837172;78;21469;-63
2022/03/21 01:17:58;;;;;;;17.12;12.07;;;;;;;15.08;39.16;101864.61;1823946;78;21076;-65
2022/03/21 01:20:26;;;;;;;15.28;12.00;;;;;;;15.07;39.18;101861.61;1804273;79;21454;-63
2022/03/21 01:22:53;;;;;;;16.82;12.95;;;;;;;15.06;39.18;101859.06;1804232;79;21494;-64
2022/03/21 01:25:23;;;;;;;19.35;12.78;;;;;;;15.04;39.21;101860.55;1804182;79;20986;-64
2022/03/21 01:27:54;;;;;;;21.50;12.98;;;;;;;15.04;39.21;101856.53;1804423;79;21018;-63
2022/03/21 01:30:21;;;;;;;22.65;14.90;;;;;;;15.03;39.20;101864.73;1804296;79;21148;-63
2022/03/21 01:32:47;;;;;;;20.00;14.28;;;;;;;15.02;39.20;101859.85;1804351;79;21494;-64
2022/03/21 01:35:16;;;;;;;20.85;15.08;;;;;;;15.01;39.23;101855.50;1805672;78;21006;-63
2022/03/21 01:37:44;;;;;;;22.62;16.55;;;;;;;15.01;39.20;101858.66;1804389;79;21038;-64
2022/03/21 01:40:11;;;;;;;19.70;15.30;;;;;;;14.99;39.22;101852.60;1804239;79;21037;-63
2022/03/21 01:42:39;;;;;;;22.77;15.18;;;;;;;14.98;39.23;101850.94;1805217;78;21480;-64
2022/03/21 01:45:08;;;;;;;24.02;17.02;;;;;;;14.96;39.25;101848.39;1823385;78;21169;-64
2022/03/21 01:47:34;;;;;;;26.07;17.32;;;;;;;14.96;39.26;101854.25;1823771;78;21017;-64
2022/03/21 01:50:02;;;;;;;28.38;18.30;;;;;;;14.93;39.27;101851.34;1823547;78;21029;-64
2022/03/21 01:52:29;;;;;;;27.62;18.17;;;;;;;14.93;39.27;101856.70;1840116;77;21169;-64
2022/03/21 01:57:45;;;;;;;26.05;19.85;;;;;;;14.90;39.29;101851.16;1849921;77;21046;-64
2022/03/21 02:00:15;;;;;;;29.18;19.98;;;;;;;14.88;39.31;101850.45;1849748;77;21056;-63
2022/03/21 02:02:44;;;;;;;30.08;20.35;;;;;;;14.87;39.30;101853.27;1776276;80;21074;-64
2022/03/21 02:05:10;;;;;;;34.58;22.52;;;;;;;14.86;39.29;101852.94;1754031;80;21046;-64
2022/03/21 02:07:37;;;;;;;30.70;21.90;;;;;;;14.85;39.32;101853.91;1778246;80;21518;-64
2022/03/21 02:10:06;;;;;;;32.10;21.60;;;;;;;14.84;39.35;101850.91;1767319;80;21458;-63
2022/03/21 02:12:34;;;;;;;36.10;24.45;;;;;;;14.81;39.35;101852.02;1754842;81;21038;-64
2022/03/21 02:15:04;;;;;;;35.98;25.60;;;;;;;14.81;39.37;101860.55;1755020;81;21100;-63
2022/03/21 02:17:35;;;;;;;36.60;24.18;;;;;;;14.79;39.38;101857.17;1755250;81;21581;-64
2022/03/21 02:20:05;;;;;;;41.98;26.40;;;;;;;14.78;39.38;101858.17;1784338;80;21050;-64
2022/03/21 02:22:56;;;;;;;38.83;26.15;;;;;;;14.77;39.39;101861.32;1757111;81;21049;-65
2022/03/21 02:25:32;;;;;;;40.38;27.10;;;;;;;14.75;39.42;101858.78;1787279;79;21046;-63
2022/03/21 02:28:00;;;;;;;42.90;27.17;;;;;;;14.74;39.40;101863.80;1806499;79;21564;-64
2022/03/21 02:30:28;;;;;;;46.77;28.40;;;;;;;14.73;39.44;101863.94;1792402;80;21053;-64
2022/03/21 02:32:55;;;;;;;40.65;27.48;;;;;;;14.70;39.45;101857.05;1792377;80;21806;-64
2022/03/21 02:35:22;;;;;;;46.45;29.18;;;;;;;14.70;39.44;101861.56;1760624;81;21049;-64
2022/03/21 02:37:49;;;;;;;43.55;29.60;;;;;;;14.68;39.47;101861.70;1777785;80;21034;-64
2022/03/21 02:40:19;;;;;;;41.92;29.20;;;;;;;14.67;39.47;101854.66;1760584;81;21016;-64
2022/03/21 02:42:46;;;;;;;45.10;31.35;;;;;;;14.67;39.47;101852.48;1752878;80;21077;-63
2022/03/21 02:45:13;;;;;;;50.28;31.12;;;;;;;14.65;39.48;101851.28;1789551;80;21238;-63
2022/03/21 02:47:40;;;;;;;43.78;31.05;;;;;;;14.65;39.50;101855.80;1789507;80;21578;-64
2022/03/21 02:50:10;;;;;;;47.62;32.30;;;;;;;14.63;39.49;101857.27;1756930;81;21175;-64
2022/03/21 02:52:37;;;;;;;50.00;33.23;;;;;;;14.64;39.50;101855.42;1757002;81;21506;-63
2022/03/21 02:55:05;;;;;;;54.95;33.90;;;;;;;14.61;39.52;101859.24;1756918;81;21102;-65
2022/03/21 02:57:33;;;;;;;54.60;33.95;;;;;;;14.60;39.54;101853.53;1789727;80;21886;-65
2022/03/21 03:00:00;;;;;;;50.40;35.00;;;;;;;14.60;39.53;101856.70;1803452;78;21056;-64
2022/03/21 03:02:26;;;;;;;52.45;33.78;;;;;;;14.59;39.55;101858.55;1789592;80;21034;-64
2022/03/21 03:04:54;;;;;;;56.75;36.88;;;;;;;14.57;39.56;101852.50;1783235;80;21541;-63
2022/03/21 03:07:21;;;;;;;54.60;35.73;;;;;;;14.57;39.55;101846.31;1805992;79;21455;-63
2022/03/21 03:09:49;;;;;;;50.65;34.95;;;;;;;14.55;39.59;101854.44;1805839;79;21026;-64
2022/03/21 03:12:15;;;;;;;52.50;36.63;;;;;;;14.54;39.59;101856.28;1805812;79;21601;-64
2022/03/21 03:14:43;;;;;;;54.53;37.05;;;;;;;14.53;39.61;101849.73;1804364;79;21423;-64
2022/03/21 03:17:10;;;;;;;57.13;37.90;;;;;;;14.52;39.58;101847.52;1789376;79;21001;-64
2022/03/21 03:19:36;;;;;;;52.98;36.95;;;;;;;14.49;39.61;101849.66;1805878;79;21028;-63
2022/03/21 03:22:04;;;;;;;60.95;39.70;;;;;;;14.49;39.63;101848.33;1806072;79;21228;-63
2022/03/21 03:24:31;;;;;;;54.95;36.88;;;;;;;14.48;39.65;101849.30;1805698;79;20998;-63
2022/03/21 03:26:59;;;;;;;57.35;37.00;;;;;;;14.48;39.62;101849.30;1806009;79;21045;-64
2022/03/21 03:29:25;;;;;;;58.08;36.90;;;;;;;14.45;39.67;101849.10;1805877;79;20998;-65
2022/03/21 03:31:52;;;;;;;55.08;36.65;;;;;;;14.45;39.64;101853.61;1806180;79;21064;-63
2022/03/21 03:34:21;;;;;;;55.63;38.17;;;;;;;14.43;39.66;101849.73;1788840;79;21133;-63
2022/03/21 03:36:49;;;;;;;61.40;40.43;;;;;;;14.43;39.67;101852.88;1774255;80;21030;-63
2022/03/21 03:39:16;;;;;;;55.65;39.10;;;;;;;14.42;39.69;101852.05;1774302;80;21073;-63
2022/03/21 03:41:43;;;;;;;59.60;38.60;;;;;;;14.41;39.68;101854.86;1723784;80;21089;-63
2022/03/21 03:44:10;;;;;;;59.53;39.03;;;;;;;14.40;39.69;101851.84;1800007;79;21082;-63
2022/03/21 03:46:37;;;;;;;61.28;40.17;;;;;;;14.39;39.69;101852.81;1802912;79;21254;-63
2022/03/21 03:49:03;;;;;;;59.05;39.85;;;;;;;14.38;39.71;101848.47;1802956;79;20978;-63
2022/03/21 03:51:30;;;;;;;57.15;38.33;;;;;;;14.36;39.72;101846.77;1801755;79;21530;-64
2022/03/21 03:53:57;;;;;;;54.98;39.20;;;;;;;14.35;39.73;101846.44;1802915;79;20999;-64
2022/03/21 03:56:25;;;;;;;63.83;39.63;;;;;;;14.35;39.71;101840.22;1802918;79;20990;-63
2022/03/21 03:58:52;;;;;;;55.43;37.90;;;;;;;14.33;39.74;101843.06;1802926;79;21258;-64
2022/03/21 04:01:19;;;;;;;56.10;38.15;;;;;;;14.32;39.74;101841.36;1802929;79;20990;-63
2022/03/21 04:03:47;;;;;;;59.85;38.40;;;;;;;14.31;39.77;101842.36;1802889;79;21034;-63
2022/03/21 04:06:20;;;;;;;56.20;39.78;;;;;;;14.30;39.77;101835.31;1802982;79;21537;-64
2022/03/21 04:08:50;;;;;;;60.70;40.05;;;;;;;14.30;39.78;101837.98;1801902;79;21006;-64
2022/03/21 04:11:16;;;;;;;58.87;37.15;;;;;;;14.28;39.82;101842.63;1802886;79;21251;-64
2022/03/21 04:13:43;;;;;;;57.23;37.95;;;;;;;14.27;39.82;101842.27;1802971;79;21042;-64
2022/03/21 04:16:10;;;;;;;58.40;38.15;;;;;;;14.27;39.84;101842.77;1802846;79;21104;-63
2022/03/21 04:18:38;;;;;;;54.77;36.73;;;;;;;14.25;39.85;101838.05;1803014;79;21050;-64
2022/03/21 04:21:04;;;;;;;53.95;38.20;;;;;;;14.24;39.85;101833.20;1797960;79;21049;-64
2022/03/21 04:23:31;;;;;;;55.75;37.13;;;;;;;14.23;39.85;101836.02;1788832;79;21230;-64
2022/03/21 04:25:58;;;;;;;54.73;38.40;;;;;;;14.23;39.86;101835.52;1846213;77;20975;-64
2022/03/21 04:28:25;;;;;;;49.93;36.28;;;;;;;14.22;39.88;101843.20;1847301;77;20986;-64
2022/03/21 04:30:53;;;;;;;54.38;37.17;;;;;;;14.21;39.89;101832.64;1847425;77;21489;-65
2022/03/21 04:33:19;;;;;;;53.60;36.63;;;;;;;14.22;39.90;101838.35;1775585;80;21007;-63
2022/03/21 04:35:47;;;;;;;54.27;37.38;;;;;;;14.21;39.92;101827.30;1775552;80;20998;-64
2022/03/21 04:38:14;;;;;;;56.00;38.35;;;;;;;14.20;39.93;101833.61;1847208;77;21010;-64
2022/03/21 04:40:49;;;;;;;52.25;35.90;;;;;;;14.20;39.94;101834.48;1847538;77;21053;-63
2022/03/21 04:43:17;;;;;;;52.80;35.30;;;;;;;14.20;39.94;101831.80;1783541;79;21077;-63
2022/03/21 04:45:49;;;;;;;55.50;36.65;;;;;;;14.20;39.95;101834.95;1784081;80;21083;-63
2022/03/21 04:48:15;;;;;;;52.62;36.05;;;;;;;14.18;39.96;101831.10;1823379;78;21206;-64
2022/03/21 04:50:43;;;;;;;50.45;34.75;;;;;;;14.18;40.00;101835.58;1823239;78;21004;-63
2022/03/21 04:53:10;;;;;;;49.45;35.13;;;;;;;14.17;40.01;101844.09;1823177;78;21021;-64
2022/03/21 04:55:40;;;;;;;50.12;35.28;;;;;;;14.18;40.01;101844.47;1823221;78;21005;-64
2022/03/21 04:58:08;;;;;;;51.13;35.08;;;;;;;14.19;40.02;101840.80;1825852;77;21025;-64
2022/03/21 05:00:37;;;;;;;50.58;34.40;;;;;;;14.18;40.02;101841.80;1856762;77;21135;-63
2022/03/21 05:03:07;;;;;;;53.00;35.15;;;;;;;14.19;40.03;101838.13;1856701;77;21092;-64
2022/03/21 05:05:35;;;;;;;51.05;33.50;;;;;;;14.19;40.04;101839.45;1856712;77;20993;-64
2022/03/21 05:08:05;;;;;;;51.92;33.85;;;;;;;14.20;40.07;101836.28;1856816;77;21017;-63
2022/03/21 05:10:31;;;;;;;51.50;36.75;;;;;;;14.18;40.07;101827.09;1857127;77;21512;-64
2022/03/21 05:12:59;;;;;;;48.98;33.55;;;;;;;14.19;40.09;101842.12;1856861;77;21908;-64
2022/03/21 05:15:27;;;;;;;46.28;34.10;;;;;;;14.20;40.09;101843.83;1854265;77;21462;-64
2022/03/21 05:17:53;;;;;;;49.27;34.40;;;;;;;14.21;40.10;101846.84;1845743;77;21006;-64
2022/03/21 05:20:22;;;;;;;48.52;33.75;;;;;;;14.22;40.10;101849.88;1845698;77;21017;-65
2022/03/21 05:30:58;;;;;;;46.85;32.50;;;;;;;14.26;40.14;101848.61;1823440;78;21469;-64
2022/03/21 05:36:13;;;;;;;47.67;33.42;;;;;;;14.27;40.16;101852.12;1846163;77;20997;-64
2022/03/21 05:38:39;;;;;;;47.48;32.85;;;;;;;14.27;40.16;101853.45;1845746;77;21218;-64
2022/03/21 05:41:06;;;;;;;48.42;31.87;;;;;;;14.28;40.17;101851.98;1846539;77;21021;-63
2022/03/21 05:43:33;;;;;;;48.02;32.42;;;;;;;14.29;40.18;101847.00;1856810;77;21064;-65
2022/03/21 05:46:01;;;;;;;46.15;33.50;;;;;;;14.31;40.17;101857.53;1852037;77;20994;-63
2022/03/21 05:51:20;;;;;;;43.45;31.68;;;;;;;14.33;40.19;101848.41;1837904;77;21226;-63
2022/03/21 05:53:46;;;;;;;45.65;32.15;;;;;;;14.36;40.16;101853.95;1838133;78;21103;-64
2022/03/21 05:56:13;;;;;;;46.33;31.95;;;;;;;14.36;40.19;101855.29;1838496;78;20994;-63
2022/03/21 05:58:42;;;;;;;44.60;31.62;;;;;;;14.38;40.19;101862.67;1838458;78;20991;-64
2022/03/21 06:01:11;;;;;;;49.00;33.45;;;;;;;14.40;40.19;101863.87;1838414;78;21009;-64
2022/03/21 06:03:38;;;;;;;53.75;33.83;;;;;;;14.41;40.19;101864.21;1838401;78;22072;-64
2022/03/21 06:06:06;;;;;;;45.92;33.63;;;;;;;14.43;40.18;101857.76;1838156;77;21011;-64
2022/03/21 06:08:33;;;;;;;46.98;32.90;;;;;;;14.45;40.20;101861.64;1797189;79;21062;-65
2022/03/21 06:11:08;;;;;;;50.33;33.73;;;;;;;14.46;40.20;101868.66;1797349;79;21093;-65
2022/03/21 06:13:38;;;;;;;45.25;32.17;;;;;;;14.47;40.20;101864.52;1767069;81;21003;-64
2022/03/21 06:16:08;;;;;;;46.25;33.38;;;;;;;14.49;40.19;101868.38;1839919;77;21764;-64
2022/03/21 06:18:36;;;;;;;50.15;32.88;;;;;;;14.51;40.20;101867.75;1839899;78;21029;-64
2022/03/21 06:21:05;;;;;;;49.45;33.23;;;;;;;14.53;40.23;101871.95;1797255;79;21030;-63
2022/03/21 06:23:31;;;;;;;46.92;30.80;;;;;;;14.53;40.23;101869.28;1802176;79;20999;-63
2022/03/21 06:25:58;;;;;;;45.10;31.62;;;;;;;14.56;40.22;101877.51;1775455;80;21038;-63
2022/03/21 06:28:27;;;;;;;48.58;33.13;;;;;;;14.57;40.25;101876.56;1847134;77;21198;-64
2022/03/21 06:30:56;;;;;;;44.58;30.60;;;;;;;14.59;40.26;101873.25;1847060;77;21092;-65
2022/03/21 06:33:25;;;;;;;45.05;32.25;;;;;;;14.61;40.27;101867.77;1837984;77;20966;-63
2022/03/21 06:35:53;;;;;;;43.65;31.45;;;;;;;14.62;40.27;101872.98;1815211;77;21025;-64
2022/03/21 06:38:19;;;;;;;49.80;31.55;;;;;;;14.64;40.28;101875.48;1803051;79;21033;-63
2022/03/21 06:40:46;;;;;;;46.73;32.05;;;;;;;14.65;40.28;101878.53;1815766;77;21239;-64
2022/03/21 06:43:15;;;;;;;48.35;30.85;;;;;;;14.68;40.29;101883.58;1767042;81;21007;-64
2022/03/21 06:45:47;;;;;;;42.30;29.40;;;;;;;14.69;40.28;101882.60;1775177;80;21007;-63
2022/03/21 06:48:14;;;;;;;44.25;30.57;;;;;;;14.71;40.29;101881.97;1772205;81;21014;-64
2022/03/21 06:50:42;;;;;;;45.15;30.10;;;;;;;14.73;40.28;101888.85;1846646;77;21544;-64
2022/03/21 06:53:08;;;;;;;43.35;29.85;;;;;;;14.73;40.28;101883.50;1846754;77;21849;-63
2022/03/21 06:55:35;;;;;;;42.50;29.25;;;;;;;14.75;40.27;101876.67;1846514;77;21034;-65
2022/03/21 06:58:03;;;;;;;40.60;29.18;;;;;;;14.77;40.28;101885.91;1845553;77;21052;-64
2022/03/21 07:00:31;;;;;;;43.80;30.72;;;;;;;14.79;40.29;101884.77;1846550;77;21092;-64
2022/03/21 07:02:58;;;;;;;44.50;29.80;;;;;;;14.81;40.29;101888.64;1846604;77;21018;-65
2022/03/21 07:05:26;;;;;;;38.67;28.57;;;;;;;14.84;40.28;101888.36;1846639;77;21126;-65
2022/03/21 07:07:53;;;;;;;40.12;29.85;;;;;;;14.84;40.29;101883.84;1846824;77;21038;-64
2022/03/21 07:10:19;;;;;;;37.48;28.00;;;;;;;14.86;40.30;101887.22;1846858;77;20978;-64
2022/03/21 07:12:46;;;;;;;42.55;28.45;;;;;;;14.87;40.29;101887.59;1846832;77;21097;-64
2022/03/21 07:15:12;;;;;;;42.15;29.75;;;;;;;14.90;40.30;101883.77;1771571;80;21006;-63
2022/03/21 07:17:42;;;;;;;41.35;26.80;;;;;;;14.91;40.32;101888.98;1772416;80;21246;-64
2022/03/21 07:20:11;;;;;;;39.18;27.82;;;;;;;14.95;40.32;101886.87;1772701;81;21026;-63
2022/03/21 07:22:39;;;;;;;39.35;26.35;;;;;;;14.97;40.30;101883.55;1840222;77;21510;-65
2022/03/21 07:25:07;;;;;;;37.42;27.02;;;;;;;14.99;40.32;101878.89;1786353;80;21029;-62
2022/03/21 07:27:34;;;;;;;37.65;26.15;;;;;;;15.02;40.31;101885.28;1786704;80;21024;-63
2022/03/21 07:30:01;;;;;;;43.02;27.22;;;;;;;15.04;40.33;101879.28;1786463;80;21901;-64
2022/03/21 07:32:27;;;;;;;40.00;27.48;;;;;;;15.06;40.31;101877.80;1801511;77;21459;-64
2022/03/21 07:34:54;;;;;;;36.93;25.45;;;;;;;15.10;40.31;101876.05;1808173;79;21565;-64
2022/03/21 07:37:21;;;;;;;37.13;25.10;;;;;;;15.13;40.29;101875.73;1808115;79;20998;-64
2022/03/21 07:39:48;;;;;;;36.68;26.15;;;;;;;15.16;40.31;101870.58;1793937;78;21025;-64
2022/03/21 07:42:16;;;;;;;35.48;25.35;;;;;;;15.19;40.31;101865.45;1813938;78;22120;-64
2022/03/21 07:47:29;;;;;;;36.48;24.12;;;;;;;15.23;40.35;101871.69;1843379;77;21002;-63
2022/03/21 07:49:56;;;;;;;32.45;25.30;;;;;;;15.26;40.31;101871.41;1839560;77;21013;-64
2022/03/21 07:52:22;;;;;;;30.72;23.87;;;;;;;15.29;40.36;101879.63;1838197;78;21009;-64
2022/03/21 07:54:53;;;;;;;36.63;23.62;;;;;;;15.30;40.36;101875.48;1764285;81;21551;-64
2022/03/21 07:57:23;;;;;;;29.95;22.85;;;;;;;15.33;40.38;101877.84;1765565;81;21063;-64
2022/03/21 07:59:51;;;;;;;31.50;23.73;;;;;;;15.36;40.38;101882.58;1838124;77;21403;-63
2022/03/21 08:02:21;;;;;;;28.90;21.95;;;;;;;15.39;40.48;101883.10;1838174;78;20983;-64
2022/03/21 08:04:48;;;;;;;33.85;23.27;;;;;;;15.40;40.46;101875.44;1838202;78;21514;-65
2022/03/21 08:07:15;;;;;;;29.40;21.45;;;;;;;15.43;40.43;101876.49;1838070;78;21078;-65
2022/03/21 08:09:42;;;;;;;28.98;23.12;;;;;;;15.46;40.45;101869.98;1764088;81;21078;-65
2022/03/21 08:12:10;;;;;;;31.10;21.97;;;;;;;15.47;40.45;101863.14;1765262;81;21034;-64
2022/03/21 08:14:37;;;;;;;31.77;20.92;;;;;;;15.51;40.46;101862.33;1838241;78;20991;-64
2022/03/21 08:17:04;;;;;;;29.10;22.70;;;;;;;15.52;40.43;101857.33;1838386;78;20990;-64
2022/03/21 08:19:31;;;;;;;29.30;21.15;;;;;;;15.56;40.43;101857.88;1838131;78;21133;-64
2022/03/21 08:21:58;;;;;;;29.82;22.07;;;;;;;15.59;40.44;101862.92;1837683;77;21049;-64
2022/03/21 08:24:26;;;;;;;30.60;21.95;;;;;;;15.61;40.42;101855.61;1847459;77;21025;-63
2022/03/21 08:26:54;;;;;;;25.92;21.12;;;;;;;15.63;40.41;101857.13;1807772;79;21007;-65
2022/03/21 08:29:21;;;;;;;27.80;20.65;;;;;;;15.66;40.39;101854.64;1807822;79;21506;-64
2022/03/21 08:31:48;;;;;;;26.95;21.12;;;;;;;15.68;40.38;101849.97;1774228;80;21223;-64
2022/03/21 08:34:15;;;;;;;29.07;21.52;;;;;;;15.69;40.38;101843.64;1807624;79;21006;-64
2022/03/21 08:36:42;;;;;;;25.50;20.00;;;;;;;15.73;40.34;101847.22;1775942;80;21034;-63
2022/03/21 08:39:11;;;;;;;26.20;19.92;;;;;;;15.77;40.35;101842.91;1807050;79;21093;-64
2022/03/21 08:41:38;;;;;;;27.50;19.57;;;;;;;15.79;40.34;101840.42;1806388;79;21026;-65
2022/03/21 08:44:05;;;;;;;24.30;19.35;;;;;;;15.82;40.36;101839.27;1806292;77;21228;-66
2022/03/21 08:46:32;;;;;;;25.65;18.12;;;;;;;15.85;40.35;101842.48;1819258;77;21022;-64
2022/03/21 08:51:43;;;;;;;24.80;18.37;;;;;;;15.91;40.33;101851.26;1847948;77;20997;-64
2022/03/21 08:54:11;;;;;;;24.27;18.30;;;;;;;15.96;40.26;101839.27;1848173;77;21005;-64
2022/03/21 08:56:37;;;;;;;24.27;18.12;;;;;;;15.98;40.31;101844.81;1845471;77;21036;-66
2022/03/21 08:59:04;;;;;;;24.02;17.85;;;;;;;16.01;40.34;101835.61;1839749;78;21521;-64
2022/03/21 09:01:31;;;;;;;24.10;18.37;;;;;;;16.04;40.33;101834.81;1839736;78;21072;-64
2022/03/21 09:04:02;;;;;;;21.30;16.75;;;;;;;16.08;40.31;101841.55;1839866;78;21105;-63
2022/03/21 09:06:29;;;;;;;21.52;17.70;;;;;;;16.12;40.30;101840.75;1797191;79;21039;-64
2022/03/21 09:08:56;;;;;;;22.77;17.77;;;;;;;16.17;40.32;101841.14;1766780;81;21143;-64
2022/03/21 09:11:22;;;;;;;20.52;16.35;;;;;;;16.21;40.29;101845.20;1839788;78;21029;-65
2022/03/21 09:13:49;;;;;;;24.57;17.42;;;;;;;16.25;40.24;101834.50;1839704;78;21009;-65
2022/03/21 09:16:16;;;;;;;20.77;16.80;;;;;;;16.31;40.22;101830.36;1797190;79;21486;-64
2022/03/21 09:18:43;;;;;;;28.05;17.37;;;;;;;16.37;40.21;101839.12;1766828;81;21003;-64
2022/03/21 09:21:11;;;;;;;21.90;16.37;;;;;;;16.41;40.21;101830.27;1839890;78;21353;-63
2022/03/21 09:23:39;;;;;;;19.32;15.13;;;;;;;16.46;40.20;101827.47;1845433;77;21009;-65
2022/03/21 09:26:10;;;;;;;21.02;16.25;;;;;;;16.52;40.30;101824.66;1847805;77;21035;-64
2022/03/21 09:28:35;;;;;;;19.65;15.98;;;;;;;16.59;40.37;101828.41;1847674;77;21005;-64
2022/03/21 09:31:02;;;;;;;20.43;15.43;;;;;;;16.66;40.64;101823.25;1843251;77;21595;-65
2022/03/21 09:33:29;;;;;;;20.32;15.45;;;;;;;16.70;40.70;101820.08;1764179;81;21974;-65
2022/03/21 09:35:56;;;;;;;20.23;15.28;;;;;;;16.78;40.68;101819.80;1765385;81;21534;-64
2022/03/21 09:38:22;;;;;;;20.72;15.48;;;;;;;16.84;40.70;101813.82;1837987;78;21119;-64
2022/03/21 09:40:50;;;;;;;18.07;15.38;;;;;;;16.92;40.61;101815.71;1838033;78;21018;-65
2022/03/21 09:43:17;;;;;;;20.68;16.07;;;;;;;16.98;40.60;101819.96;1838033;78;21015;-63
2022/03/21 09:45:43;;;;;;;17.27;13.95;;;;;;;17.05;40.58;101812.92;1837972;78;21218;-64
2022/03/21 09:48:14;;;;;;;17.70;13.72;;;;;;;17.13;40.57;101801.89;1842294;77;21066;-64
2022/03/21 09:50:44;;;;;;;19.20;14.50;;;;;;;17.22;40.57;101813.02;1847520;77;21485;-63
2022/03/21 09:53:13;;;;;;;18.02;14.50;;;;;;;17.29;40.57;101810.03;1829319;77;21164;-64
2022/03/21 09:55:40;;;;;;;18.95;14.53;;;;;;;17.37;40.52;101802.51;1847785;77;21031;-64
2022/03/21 09:58:10;;;;;;;19.45;14.18;;;;;;;17.44;40.43;101804.38;1847932;77;21125;-64
2022/03/21 10:00:39;;;;;;;19.20;14.07;;;;;;;17.53;40.42;101803.05;1848102;77;21460;-63
2022/03/21 10:03:06;;;;;;;17.80;13.10;;;;;;;17.63;40.36;101807.77;1847503;77;21023;-65
2022/03/21 10:05:37;;;;;;;17.70;14.10;;;;;;;17.72;40.32;101808.14;1842034;77;21565;-65
2022/03/21 10:08:18;;;;;;;17.07;12.85;;;;;;;17.79;40.28;101799.77;1797235;79;21077;-65
2022/03/21 10:11:01;;;;;;;18.57;13.43;;;;;;;17.90;40.23;101807.20;1797290;79;21046;-64
2022/03/21 10:13:37;;;;;;;15.98;12.33;;;;;;;17.98;40.21;101799.99;1797395;79;21011;-63
2022/03/21 10:16:15;;;;;;;16.48;13.05;;;;;;;18.07;40.16;101792.24;1766796;81;21035;-64
2022/03/21 10:18:57;;;;;;;15.45;13.13;;;;;;;18.17;40.12;101797.45;1766280;80;21062;-64
2022/03/21 10:21:27;;;;;;;18.67;12.95;;;;;;;18.26;40.10;101798.31;1766071;80;21042;-64
2022/03/21 10:24:02;;;;;;;16.65;13.03;;;;;;;18.37;40.06;101796.63;1804932;79;21546;-65
2022/03/21 10:26:33;;;;;;;16.45;12.25;;;;;;;18.45;39.99;101794.44;1807527;79;21529;-64
2022/03/21 10:29:02;;;;;;;15.72;13.35;;;;;;;18.56;39.97;101794.09;1807970;79;21052;-64
2022/03/21 10:31:44;;;;;;;14.95;12.55;;;;;;;18.65;39.88;101794.90;1807617;79;21535;-64
2022/03/21 10:34:15;;;;;;;15.70;10.95;;;;;;;18.74;39.85;101789.00;1807557;79;21510;-65
2022/03/21 10:37:04;;;;;;;12.28;10.98;;;;;;;18.83;39.82;101790.19;1808025;79;21517;-65
2022/03/21 10:39:40;;;;;;;14.47;11.65;;;;;;;18.94;39.80;101784.09;1806931;79;21042;-63
2022/03/21 10:42:10;;;;;;;14.53;10.93;;;;;;;19.05;39.75;101786.41;1807917;79;21014;-66
2022/03/21 10:44:37;;;;;;;13.25;10.98;;;;;;;19.15;39.73;101792.94;1807648;79;21490;-65
2022/03/21 10:47:06;;;;;;;14.15;11.25;;;;;;;19.24;39.69;101781.95;1810067;79;21018;-64
2022/03/21 10:49:48;;;;;;;15.18;11.53;;;;;;;19.34;39.65;101785.77;1816130;79;21851;-64
2022/03/21 10:52:16;;;;;;;12.75;10.43;;;;;;;19.44;39.61;101778.30;1815223;79;21049;-63
2022/03/21 10:54:48;;;;;;;13.05;10.90;;;;;;;19.55;39.55;101773.02;1816391;79;21053;-64
2022/03/21 10:57:34;;;;;;;14.87;10.45;;;;;;;19.63;39.53;101766.22;1808725;78;21502;-64
2022/03/21 11:01:15;;;;;;;11.15;9.88;;;;;;;19.83;39.48;101758.52;1870312;76;22457;-64
2022/03/21 11:03:46;;;;;;;11.97;10.18;;;;;;;19.90;39.46;101765.40;1826536;78;21012;-64
2022/03/21 11:06:13;;;;;;;12.90;9.73;;;;;;;20.01;39.39;101765.47;1826719;78;21199;-64
2022/03/21 11:08:41;;;;;;;12.33;9.93;;;;;;;20.11;39.38;101766.08;1826368;78;21075;-63
2022/03/21 11:11:09;;;;;;;10.48;9.38;;;;;;;20.21;39.33;101758.55;1826542;78;20996;-64
2022/03/21 11:13:37;;;;;;;12.23;9.80;;;;;;;20.32;39.31;101757.77;1805109;78;21001;-64
2022/03/21 11:16:06;;;;;;;10.32;9.10;;;;;;;20.41;39.28;101757.52;1794111;79;20950;-63
2022/03/21 11:18:32;;;;;;;11.60;9.38;;;;;;;20.52;39.27;101755.41;1794113;79;21505;-64
2022/03/21 11:21:00;;;;;;;12.28;9.70;;;;;;;20.62;39.20;101762.22;1794591;78;21500;-63
2022/03/21 11:23:30;;;;;;;10.98;9.35;;;;;;;20.72;39.21;101755.19;1826488;78;20950;-64
2022/03/21 11:26:21;;;;;;;9.80;8.23;;;;;;;20.83;39.19;101753.90;1826491;78;21041;-65
2022/03/21 11:29:27;;;;;;;10.88;8.50;;;;;;;20.92;39.20;101747.38;1826373;78;21163;-64
2022/03/21 11:32:17;;;;;;;10.18;8.43;;;;;;;21.05;39.19;101743.16;1826606;78;21757;-64
2022/03/21 11:35:17;;;;;;;9.65;8.65;;;;;;;21.17;39.24;101745.20;1826591;78;21627;-63
2022/03/21 11:37:44;;;;;;;11.05;9.10;;;;;;;21.29;39.20;101740.14;1826833;78;21028;-64
2022/03/21 11:40:30;;;;;;;10.15;8.33;;;;;;;21.41;39.09;101737.77;1806044;78;21028;-64